Time;durP1;ratioP1;P1;durP2;ratioP2;P2;SDS_P1;SDS_P2;PMS_P1;PMS_P2;Temp;Humidity;BMP_temperature;BMP_pressure;BME280_temperature;BME280_humidity;BME280_pressure;Samples;Min_cycle;Max_cycle;Signal;HPM_P1;HPM_P2
2023/07/21 00:01:36;;;;;;;6.25;3.28;;;15.10;99.90;;;;;;5074093;28;20044;-70
2023/07/21 00:04:03;;;;;;;5.00;3.05;;;15.10;99.90;;;;;;5074104;28;20032;-70
2023/07/21 00:06:29;;;;;;;7.30;3.25;;;14.90;99.90;;;;;;5055551;28;20040;-70
2023/07/21 00:08:54;;;;;;;4.07;3.15;;;14.90;99.90;;;;;;5074249;28;20033;-70
2023/07/21 00:11:20;;;;;;;6.20;3.25;;;14.80;99.90;;;;;;5074180;28;20420;-70
2023/07/21 00:13:46;;;;;;;5.45;3.38;;;14.70;99.90;;;;;;5074039;28;20384;-70
2023/07/21 00:16:11;;;;;;;5.40;3.22;;;14.80;99.90;;;;;;5073496;28;20062;-70
2023/07/21 00:18:38;;;;;;;5.13;2.65;;;14.80;99.90;;;;;;5055964;28;20094;-70
2023/07/21 00:21:05;;;;;;;4.70;2.63;;;14.70;99.90;;;;;;5073712;28;20458;-70
2023/07/21 00:23:31;;;;;;;4.10;2.60;;;14.60;99.90;;;;;;5055995;28;20040;-70
2023/07/21 00:25:58;;;;;;;4.55;2.70;;;14.50;99.90;;;;;;5073548;28;20045;-71
2023/07/21 00:28:25;;;;;;;5.03;2.20;;;14.50;99.90;;;;;;5055512;28;20037;-70
2023/07/21 00:30:51;;;;;;;4.47;1.95;;;14.50;99.90;;;;;;5073735;28;20045;-70
2023/07/21 00:33:17;;;;;;;3.45;1.90;;;14.50;99.90;;;;;;5055637;28;20411;-71
2023/07/21 00:35:43;;;;;;;8.90;3.00;;;14.50;99.90;;;;;;5038669;28;20041;-70
2023/07/21 00:38:09;;;;;;;3.05;2.20;;;14.50;99.90;;;;;;5073431;28;20036;-70
2023/07/21 00:40:37;;;;;;;5.63;2.60;;;14.50;99.90;;;;;;5073414;28;20553;-70
2023/07/21 00:43:03;;;;;;;5.20;2.95;;;14.40;99.90;;;;;;5073339;28;20119;-70
2023/07/21 00:45:34;;;;;;;5.18;2.55;;;14.50;99.90;;;;;;5073152;28;20495;-70
2023/07/21 00:48:03;;;;;;;3.97;2.38;;;14.50;99.90;;;;;;5072871;28;20033;-70
2023/07/21 00:50:29;;;;;;;4.97;2.65;;;14.30;99.90;;;;;;5073408;28;20415;-70
2023/07/21 00:52:56;;;;;;;6.15;2.65;;;14.40;99.90;;;;;;5073246;28;20036;-70
2023/07/21 00:55:22;;;;;;;4.93;2.85;;;14.40;99.90;;;;;;5055028;28;20083;-70
2023/07/21 00:57:48;;;;;;;6.80;3.08;;;14.40;99.90;;;;;;5072849;28;20127;-70
2023/07/21 01:00:13;;;;;;;10.10;3.10;;;14.40;99.90;;;;;;5072895;28;20543;-70
2023/07/21 01:02:39;;;;;;;4.57;2.58;;;14.30;99.90;;;;;;5072519;28;20488;-70
2023/07/21 01:05:06;;;;;;;4.88;3.10;;;14.30;99.90;;;;;;5055228;28;20074;-70
2023/07/21 01:07:34;;;;;;;6.90;2.85;;;14.30;99.90;;;;;;5072454;28;20036;-70
2023/07/21 01:10:00;;;;;;;4.13;3.13;;;14.20;99.90;;;;;;5072782;28;20053;-70
2023/07/21 01:12:26;;;;;;;9.35;3.17;;;14.20;99.90;;;;;;5072767;28;20036;-70
2023/07/21 01:14:52;;;;;;;7.57;3.33;;;14.20;99.90;;;;;;5072687;28;20033;-70
2023/07/21 01:17:19;;;;;;;5.60;2.85;;;14.10;99.90;;;;;;5072060;28;20412;-70
2023/07/21 01:19:48;;;;;;;6.05;3.67;;;14.10;99.90;;;;;;5072618;28;20553;-70
2023/07/21 01:22:31;;;;;;;6.57;3.03;;;14.00;99.90;;;;;;5072366;28;20047;-70
2023/07/21 01:25:00;;;;;;;4.07;2.90;;;14.00;99.90;;;;;;5072621;28;20044;-70
2023/07/21 01:27:27;;;;;;;5.28;3.08;;;14.00;99.90;;;;;;5071790;28;20075;-70
2023/07/21 01:29:53;;;;;;;6.15;3.17;;;14.00;99.90;;;;;;5071206;28;20146;-70
2023/07/21 01:32:22;;;;;;;4.13;2.90;;;14.00;99.90;;;;;;5054735;28;20047;-70
2023/07/21 01:34:49;;;;;;;5.15;3.05;;;14.00;99.90;;;;;;5054433;28;20489;-70
2023/07/21 01:37:16;;;;;;;9.05;3.60;;;14.00;99.90;;;;;;5054095;28;20048;-70
2023/07/21 01:39:42;;;;;;;5.78;3.25;;;14.00;99.90;;;;;;5072277;28;20045;-70
2023/07/21 01:42:08;;;;;;;8.00;3.47;;;14.00;99.90;;;;;;5072097;28;20039;-70
2023/07/21 01:44:34;;;;;;;7.75;3.38;;;14.00;99.90;;;;;;5072385;28;20082;-70
2023/07/21 01:47:00;;;;;;;7.35;3.70;;;14.00;99.90;;;;;;5071802;28;20448;-70
2023/07/21 01:49:25;;;;;;;5.68;3.88;;;13.90;99.90;;;;;;5072202;28;20124;-70
2023/07/21 01:51:56;;;;;;;5.03;3.70;;;14.00;99.90;;;;;;5054115;28;20037;-70
2023/07/21 01:54:41;;;;;;;5.35;3.30;;;13.90;99.90;;;;;;5054382;28;20047;-70
2023/07/21 01:57:09;;;;;;;6.10;3.33;;;13.90;99.90;;;;;;5070976;28;20558;-70
2023/07/21 01:59:36;;;;;;;5.22;3.00;;;13.80;99.90;;;;;;5053238;28;20106;-70
2023/07/21 02:02:02;;;;;;;5.70;3.03;;;13.90;99.90;;;;;;5071680;28;20045;-70
2023/07/21 02:04:28;;;;;;;4.53;3.22;;;13.90;99.90;;;;;;5071723;28;20411;-70
2023/07/21 02:06:53;;;;;;;5.88;4.07;;;13.70;99.90;;;;;;5071322;28;20071;-70
2023/07/21 02:09:20;;;;;;;7.60;3.90;;;13.70;99.90;;;;;;5071610;28;20045;-70
2023/07/21 02:11:48;;;;;;;6.30;3.60;;;13.60;99.90;;;;;;5054166;28;20438;-70
2023/07/21 02:14:14;;;;;;;6.05;3.10;;;13.70;99.90;;;;;;5053973;28;20395;-70
2023/07/21 02:16:39;;;;;;;4.47;3.42;;;13.50;99.90;;;;;;5053160;28;20036;-70
2023/07/21 02:19:06;;;;;;;5.43;3.80;;;13.50;99.90;;;;;;5053882;28;20153;-70
2023/07/21 02:21:32;;;;;;;6.75;2.92;;;13.50;99.90;;;;;;5053739;28;20102;-70
2023/07/21 02:23:58;;;;;;;5.00;3.42;;;13.50;99.90;;;;;;5053470;28;20045;-70
2023/07/21 02:26:24;;;;;;;6.82;3.28;;;13.40;99.90;;;;;;5078775;22;20039;-68
2023/07/21 02:28:49;;;;;;;4.38;3.05;;;13.50;99.90;;;;;;5091899;28;20040;-68
2023/07/21 02:31:15;;;;;;;4.15;2.83;;;13.40;99.90;;;;;;5092023;28;20051;-68
2023/07/21 02:33:41;;;;;;;5.05;2.75;;;13.40;99.90;;;;;;5091798;28;20072;-68
2023/07/21 02:36:07;;;;;;;2.60;2.30;;;13.50;99.90;;;;;;5091354;28;20047;-68
2023/07/21 02:38:32;;;;;;;3.22;2.47;;;13.40;99.90;;;;;;5091638;28;20040;-68
2023/07/21 02:41:03;;;;;;;3.33;2.97;;;13.30;99.90;;;;;;5091895;28;20119;-68
2023/07/21 02:43:29;;;;;;;3.72;2.75;;;13.30;99.90;;;;;;5092109;28;20426;-68
2023/07/21 02:45:55;;;;;;;4.35;2.95;;;13.40;99.90;;;;;;5090414;28;20121;-68
2023/07/21 02:48:21;;;;;;;5.45;3.00;;;13.30;99.90;;;;;;5091468;28;20068;-68
2023/07/21 02:50:49;;;;;;;4.88;2.90;;;13.20;99.90;;;;;;5091626;28;20140;-68
2023/07/21 02:53:15;;;;;;;3.25;2.63;;;13.30;99.90;;;;;;5090597;28;20093;-67
2023/07/21 02:55:42;;;;;;;4.10;2.95;;;13.20;99.90;;;;;;5091693;28;20036;-67
2023/07/21 02:58:09;;;;;;;4.10;2.47;;;13.30;99.90;;;;;;5091417;28;20076;-68
2023/07/21 03:00:35;;;;;;;3.67;2.80;;;13.30;99.90;;;;;;5091222;28;20044;-67
2023/07/21 03:03:01;;;;;;;3.50;2.83;;;13.30;99.90;;;;;;5091056;28;20383;-68
2023/07/21 03:05:29;;;;;;;3.85;3.03;;;13.30;99.90;;;;;;5090216;28;20441;-68
2023/07/21 03:07:56;;;;;;;4.22;3.05;;;13.20;99.90;;;;;;5090880;28;20040;-68
2023/07/21 03:10:22;;;;;;;7.32;3.42;;;13.20;99.90;;;;;;5093719;28;20480;-68
2023/07/21 03:12:47;;;;;;;4.63;2.70;;;13.20;99.90;;;;;;5095266;28;20517;-68
2023/07/21 03:15:14;;;;;;;3.50;2.33;;;13.20;99.90;;;;;;5095297;28;20119;-68
2023/07/21 03:17:40;;;;;;;6.47;2.90;;;13.30;99.90;;;;;;5094425;28;20044;-68
2023/07/21 03:20:12;;;;;;;4.68;3.08;;;13.20;99.90;;;;;;5095117;28;20051;-68
2023/07/21 03:22:46;;;;;;;3.05;2.47;;;13.30;99.90;;;;;;5095099;28;20130;-68
2023/07/21 03:25:13;;;;;;;3.88;2.88;;;13.20;99.90;;;;;;5095268;28;20036;-68
2023/07/21 03:27:39;;;;;;;3.97;3.08;;;13.20;99.90;;;;;;5094260;28;20517;-68
2023/07/21 03:30:09;;;;;;;3.45;2.55;;;13.30;99.90;;;;;;5095062;28;20066;-68
2023/07/21 03:32:36;;;;;;;3.90;2.78;;;13.20;99.90;;;;;;5093887;28;20068;-68
2023/07/21 03:35:04;;;;;;;3.88;2.03;;;13.10;99.90;;;;;;5094718;28;20039;-68
2023/07/21 03:37:31;;;;;;;2.10;1.50;;;13.10;99.90;;;;;;5094514;28;20040;-68
2023/07/21 03:39:57;;;;;;;3.28;1.10;;;13.00;99.90;;;;;;5094950;28;20133;-68
2023/07/21 03:42:23;;;;;;;1.30;0.93;;;12.80;99.90;;;;;;5093775;28;20050;-68
2023/07/21 03:44:49;;;;;;;2.17;1.00;;;12.70;99.90;;;;;;5094554;28;20510;-68
2023/07/21 03:47:17;;;;;;;1.77;1.15;;;12.70;99.90;;;;;;5092851;28;20491;-67
2023/07/21 03:49:44;;;;;;;1.50;1.02;;;12.60;99.90;;;;;;5094526;28;20043;-68
2023/07/21 03:52:10;;;;;;;2.42;1.63;;;12.50;99.90;;;;;;5094561;28;20038;-68
2023/07/21 03:54:35;;;;;;;1.73;1.27;;;12.50;99.90;;;;;;5094531;28;20050;-68
2023/07/21 03:57:01;;;;;;;2.10;1.23;;;12.60;99.90;;;;;;5092896;28;20044;-68
2023/07/21 03:59:29;;;;;;;2.75;1.30;;;12.60;99.90;;;;;;5094464;28;20127;-68
2023/07/21 04:01:55;;;;;;;2.88;1.38;;;12.60;99.90;;;;;;5094310;28;20668;-68
2023/07/21 04:04:20;;;;;;;2.10;1.50;;;12.70;99.90;;;;;;5093378;28;20047;-68
2023/07/21 04:06:46;;;;;;;1.80;1.40;;;12.70;99.90;;;;;;5093870;28;20043;-68
2023/07/21 04:09:14;;;;;;;3.30;1.98;;;12.60;99.90;;;;;;5094322;28;20043;-68
2023/07/21 04:11:41;;;;;;;2.22;1.67;;;12.60;99.90;;;;;;5094278;28;20036;-68
2023/07/21 04:14:06;;;;;;;2.83;1.83;;;12.70;99.90;;;;;;5092935;28;20116;-68
2023/07/21 04:16:32;;;;;;;3.10;2.13;;;12.80;99.90;;;;;;5093507;28;20516;-68
2023/07/21 04:18:58;;;;;;;3.30;2.40;;;12.70;99.90;;;;;;5092851;28;20115;-68
2023/07/21 04:21:24;;;;;;;3.78;2.20;;;12.90;99.90;;;;;;5093873;28;20415;-68
2023/07/21 04:23:50;;;;;;;3.75;2.15;;;12.70;99.90;;;;;;5093869;28;20039;-69
2023/07/21 04:26:16;;;;;;;2.88;2.10;;;12.80;99.90;;;;;;5093340;28;20537;-68
2023/07/21 04:28:42;;;;;;;3.78;2.35;;;12.80;99.90;;;;;;5093847;28;20044;-68
2023/07/21 04:31:11;;;;;;;5.07;2.40;;;12.80;99.90;;;;;;5092461;28;20046;-68
2023/07/21 04:33:38;;;;;;;4.10;2.40;;;12.90;99.90;;;;;;5093766;28;20519;-68
2023/07/21 04:36:04;;;;;;;3.42;2.55;;;13.00;99.90;;;;;;5092022;28;20047;-68
2023/07/21 04:38:30;;;;;;;4.15;2.92;;;13.00;99.90;;;;;;5092407;28;20076;-68
2023/07/21 04:40:55;;;;;;;4.15;2.72;;;13.10;99.90;;;;;;5093741;28;20499;-68
2023/07/21 04:43:21;;;;;;;2.30;1.92;;;13.10;99.90;;;;;;5093538;28;20089;-68
2023/07/21 04:45:47;;;;;;;3.58;2.38;;;13.20;99.90;;;;;;5092242;28;20054;-68
2023/07/21 04:48:12;;;;;;;4.25;2.30;;;13.20;99.90;;;;;;5091939;28;20036;-68
2023/07/21 04:50:42;;;;;;;3.30;2.33;;;13.30;99.90;;;;;;5094060;28;20036;-68
2023/07/21 04:53:08;;;;;;;5.22;2.38;;;13.30;99.90;;;;;;5096202;28;20043;-68
2023/07/21 04:55:34;;;;;;;3.78;2.47;;;13.30;99.90;;;;;;5094216;28;20446;-68
2023/07/21 04:58:01;;;;;;;4.28;2.63;;;13.40;99.90;;;;;;5092233;28;20040;-67
2023/07/21 05:00:27;;;;;;;3.50;2.13;;;13.60;99.90;;;;;;5093520;28;20055;-68
2023/07/21 05:02:53;;;;;;;4.18;2.40;;;13.70;99.90;;;;;;5093243;28;20040;-68
2023/07/21 05:05:18;;;;;;;3.83;2.72;;;13.70;99.90;;;;;;5093792;28;20035;-68
2023/07/21 05:07:44;;;;;;;3.10;2.55;;;13.70;99.90;;;;;;5092990;28;20044;-68
2023/07/21 05:10:10;;;;;;;4.22;2.47;;;13.80;99.90;;;;;;5093218;28;20036;-67
2023/07/21 05:12:36;;;;;;;4.13;2.60;;;13.90;99.90;;;;;;5092100;28;20066;-68
2023/07/21 05:15:01;;;;;;;3.53;2.30;;;14.20;99.90;;;;;;5093067;28;20040;-68
2023/07/21 05:17:27;;;;;;;2.80;2.30;;;14.20;99.90;;;;;;5092855;28;20568;-68
2023/07/21 05:19:53;;;;;;;2.92;2.15;;;14.50;99.90;;;;;;5093118;28;20122;-68
2023/07/21 05:22:19;;;;;;;3.50;2.20;;;14.80;99.90;;;;;;5092782;28;20521;-68
2023/07/21 05:24:44;;;;;;;3.42;2.17;;;15.10;99.90;;;;;;5092862;28;20035;-68
2023/07/21 05:27:10;;;;;;;3.55;2.35;;;15.40;99.90;;;;;;5092046;28;20522;-68
2023/07/21 05:29:36;;;;;;;2.75;2.10;;;15.70;99.90;;;;;;5092678;28;20415;-68
2023/07/21 05:32:03;;;;;;;3.60;2.55;;;16.00;99.90;;;;;;5092138;28;20047;-68
2023/07/21 05:34:31;;;;;;;4.82;2.53;;;16.40;99.90;;;;;;5092658;28;20111;-68
2023/07/21 05:36:57;;;;;;;2.63;2.13;;;16.70;99.90;;;;;;5092408;28;20078;-68
2023/07/21 05:39:22;;;;;;;3.83;2.65;;;16.90;99.90;;;;;;5091397;28;20447;-68
2023/07/21 05:41:48;;;;;;;3.45;2.17;;;17.10;99.90;;;;;;5092373;28;20386;-68
2023/07/21 05:44:14;;;;;;;3.85;2.05;;;17.20;99.90;;;;;;5091002;28;20040;-68
2023/07/21 05:46:40;;;;;;;4.65;2.40;;;17.40;99.90;;;;;;5091954;28;20044;-68
2023/07/21 05:49:07;;;;;;;3.97;2.28;;;17.60;99.90;;;;;;5091376;28;20044;-68
2023/07/21 05:51:33;;;;;;;4.75;2.28;;;17.90;99.90;;;;;;5092430;28;20040;-68
2023/07/21 05:53:59;;;;;;;3.20;1.77;;;18.30;99.90;;;;;;5092333;28;20032;-68
2023/07/21 05:56:25;;;;;;;4.63;2.30;;;18.60;99.90;;;;;;5091745;28;20032;-68
2023/07/21 05:58:50;;;;;;;4.07;1.90;;;18.90;99.90;;;;;;5092497;28;20044;-68
2023/07/21 06:01:16;;;;;;;4.13;2.20;;;19.10;99.90;;;;;;5091969;28;20039;-68
2023/07/21 06:03:42;;;;;;;4.22;2.20;;;19.10;99.90;;;;;;5091949;28;20114;-68
2023/07/21 06:06:09;;;;;;;6.00;2.05;;;19.10;99.90;;;;;;5091625;28;20036;-68
2023/07/21 06:08:34;;;;;;;5.25;2.08;;;19.30;99.90;;;;;;5091984;28;20533;-68
2023/07/21 06:11:02;;;;;;;2.92;2.00;;;19.40;99.90;;;;;;5091778;28;20126;-68
2023/07/21 06:13:29;;;;;;;5.80;2.30;;;19.50;99.90;;;;;;5091915;28;20040;-68
2023/07/21 06:15:55;;;;;;;3.92;1.65;;;19.60;99.90;;;;;;5091718;28;20510;-68
2023/07/21 06:18:21;;;;;;;3.50;1.90;;;19.70;99.90;;;;;;5091862;28;20470;-68
2023/07/21 06:20:47;;;;;;;3.13;1.50;;;19.90;99.90;;;;;;5092025;28;20076;-68
2023/07/21 06:23:12;;;;;;;3.10;1.55;;;20.00;99.90;;;;;;5091991;28;20668;-68
2023/07/21 06:25:39;;;;;;;2.75;1.13;;;20.30;99.90;;;;;;5091749;28;20038;-68
2023/07/21 06:28:05;;;;;;;3.38;1.58;;;20.40;99.90;;;;;;5091186;28;20044;-68
2023/07/21 06:30:30;;;;;;;3.75;1.65;;;20.80;99.90;;;;;;5090533;28;20496;-69
2023/07/21 06:32:56;;;;;;;4.35;1.83;;;21.20;99.90;;;;;;5091793;28;20037;-68
2023/07/21 06:35:22;;;;;;;2.42;1.33;;;21.40;99.90;;;;;;5091866;28;20499;-68
2023/07/21 06:37:47;;;;;;;3.20;1.73;;;21.60;99.90;;;;;;5091290;28;20047;-68
2023/07/21 06:40:13;;;;;;;5.70;2.22;;;21.70;99.90;;;;;;5091692;28;20051;-68
2023/07/21 06:42:43;;;;;;;3.63;1.63;;;21.80;99.90;;;;;;5092050;28;20043;-68
2023/07/21 06:45:10;;;;;;;7.05;1.77;;;22.00;99.90;;;;;;5095932;28;20048;-68
2023/07/21 06:47:36;;;;;;;20.45;5.78;;;22.10;99.90;;;;;;5095587;28;20468;-69
2023/07/21 06:50:02;;;;;;;3.85;1.88;;;22.20;99.90;;;;;;5095711;28;20032;-68
2023/07/21 06:52:27;;;;;;;5.07;1.40;;;22.10;99.90;;;;;;5095690;28;20036;-68
2023/07/21 06:54:53;;;;;;;3.42;1.08;;;22.10;99.90;;;;;;5095682;28;20035;-68
2023/07/21 06:57:19;;;;;;;3.67;1.20;;;22.10;99.10;;;;;;5095530;28;20050;-68
2023/07/21 06:59:45;;;;;;;1.98;0.93;;;21.90;98.50;;;;;;5095795;28;20046;-68
2023/07/21 07:02:12;;;;;;;2.10;1.38;;;22.10;98.90;;;;;;5095573;28;20127;-68
2023/07/21 07:04:38;;;;;;;2.33;1.10;;;22.10;98.90;;;;;;5095638;28;20067;-68
2023/07/21 07:07:04;;;;;;;3.40;1.20;;;22.40;98.80;;;;;;5095143;28;20131;-68
2023/07/21 07:09:30;;;;;;;4.70;1.20;;;22.60;98.50;;;;;;5095436;28;20083;-68
2023/07/21 07:11:56;;;;;;;2.30;1.30;;;22.80;97.40;;;;;;5095627;28;20036;-69
2023/07/21 07:14:22;;;;;;;2.30;1.13;;;23.00;98.00;;;;;;5094222;28;20036;-68
2023/07/21 07:16:47;;;;;;;1.77;0.85;;;23.00;96.90;;;;;;5094926;28;20040;-68
2023/07/21 07:19:13;;;;;;;13.73;2.05;;;22.80;96.20;;;;;;5095311;28;20076;-68
2023/07/21 07:21:38;;;;;;;2.45;1.05;;;22.70;95.50;;;;;;5095231;28;20119;-68
2023/07/21 07:24:05;;;;;;;2.25;1.00;;;22.60;95.00;;;;;;5095027;28;20093;-68
2023/07/21 07:26:31;;;;;;;2.22;1.17;;;22.60;95.30;;;;;;5092690;28;20040;-69
2023/07/21 07:28:57;;;;;;;2.35;1.40;;;22.80;95.10;;;;;;5092539;28;20491;-68
2023/07/21 07:31:23;;;;;;;1.80;0.70;;;22.90;95.40;;;;;;5094780;28;20047;-68
2023/07/21 07:33:48;;;;;;;2.00;0.98;;;23.20;94.40;;;;;;5093605;28;20036;-68
2023/07/21 07:36:14;;;;;;;1.92;1.00;;;23.30;94.00;;;;;;5094584;28;20040;-68
2023/07/21 07:38:39;;;;;;;1.13;0.88;;;23.50;92.40;;;;;;5094825;28;20048;-69
2023/07/21 07:41:09;;;;;;;1.50;1.10;;;23.40;92.40;;;;;;5095087;28;20040;-68
2023/07/21 07:43:35;;;;;;;2.10;0.95;;;23.70;92.20;;;;;;5094872;28;20051;-68
2023/07/21 07:46:02;;;;;;;3.92;0.90;;;23.80;91.70;;;;;;5087406;28;20068;-68
2023/07/21 07:48:28;;;;;;;1.60;1.02;;;24.00;91.20;;;;;;5073192;28;20513;-68
2023/07/21 07:50:53;;;;;;;2.30;0.70;;;24.10;91.30;;;;;;5073352;28;20071;-69
2023/07/21 07:53:19;;;;;;;1.00;0.60;;;24.00;88.80;;;;;;5074511;28;20133;-68
2023/07/21 07:55:45;;;;;;;2.50;0.90;;;24.10;86.40;;;;;;5073631;28;20036;-68
2023/07/21 07:58:11;;;;;;;1.00;0.55;;;24.10;84.20;;;;;;5072689;28;20048;-69
2023/07/21 08:00:38;;;;;;;1.23;0.60;;;23.80;83.40;;;;;;5074318;28;20033;-69
2023/07/21 08:03:09;;;;;;;0.73;0.40;;;23.90;86.50;;;;;;5074267;28;20059;-68
2023/07/21 08:05:36;;;;;;;0.80;0.60;;;24.10;80.00;;;;;;5074011;28;20161;-69
2023/07/21 08:08:07;;;;;;;1.10;0.57;;;24.00;81.30;;;;;;5073957;28;20072;-68
2023/07/21 08:10:33;;;;;;;1.40;0.75;;;23.90;79.70;;;;;;5074164;28;20040;-69
2023/07/21 08:13:01;;;;;;;2.08;0.63;;;23.80;79.10;;;;;;5074102;28;20049;-68
2023/07/21 08:15:26;;;;;;;1.05;0.50;;;24.10;78.30;;;;;;5073982;28;20040;-68
2023/07/21 08:17:53;;;;;;;1.95;0.90;;;24.50;74.50;;;;;;5081483;28;20047;-69
2023/07/21 08:20:19;;;;;;;1.80;0.65;;;24.60;72.50;;;;;;5073716;28;20040;-69
2023/07/21 08:22:46;;;;;;;1.35;0.73;;;24.70;70.60;;;;;;5075342;28;20542;-69
2023/07/21 08:25:11;;;;;;;0.80;0.70;;;25.00;70.60;;;;;;5073633;28;20044;-68
2023/07/21 08:27:37;;;;;;;1.35;0.90;;;24.90;71.90;;;;;;5074148;22;20049;-70
2023/07/21 08:30:04;;;;;;;2.42;0.88;;;24.90;72.10;;;;;;5053518;28;20040;-70
2023/07/21 08:32:30;;;;;;;2.70;0.90;;;25.10;70.20;;;;;;5035302;28;20519;-70
2023/07/21 08:34:55;;;;;;;1.92;0.68;;;25.20;69.80;;;;;;5053319;28;20090;-71
2023/07/21 08:37:22;;;;;;;1.33;0.85;;;25.30;68.70;;;;;;5035422;28;20485;-70
2023/07/21 08:39:47;;;;;;;2.85;0.80;;;25.50;66.80;;;;;;5035493;28;20506;-71
2023/07/21 08:42:13;;;;;;;1.25;0.68;;;25.60;67.00;;;;;;5035599;28;20065;-70
2023/07/21 08:44:39;;;;;;;2.42;0.77;;;25.70;64.80;;;;;;5053393;28;20044;-70
2023/07/21 08:47:05;;;;;;;1.35;0.63;;;25.70;63.10;;;;;;5052708;28;20520;-70
2023/07/21 08:49:32;;;;;;;1.00;0.75;;;25.80;62.80;;;;;;5035413;28;20051;-70
2023/07/21 08:51:58;;;;;;;0.77;0.60;;;25.90;63.90;;;;;;5035403;28;20496;-70
2023/07/21 08:54:23;;;;;;;3.08;0.90;;;25.60;62.90;;;;;;5053324;28;20059;-70
2023/07/21 08:56:49;;;;;;;1.70;0.70;;;25.70;63.40;;;;;;5052682;28;20040;-70
2023/07/21 08:59:17;;;;;;;0.98;0.68;;;25.60;62.30;;;;;;5053224;28;20048;-69
2023/07/21 09:01:42;;;;;;;1.95;0.80;;;25.50;61.80;;;;;;5053085;28;20076;-70
2023/07/21 09:04:23;;;;;;;3.10;0.90;;;25.60;62.80;;;;;;5035379;28;20495;-70
2023/07/21 09:06:57;;;;;;;1.58;0.80;;;25.50;62.10;;;;;;5051762;28;20033;-70
2023/07/21 09:09:25;;;;;;;2.22;0.82;;;25.30;62.60;;;;;;5052982;28;20431;-70
2023/07/21 09:12:08;;;;;;;1.77;0.90;;;25.40;61.90;;;;;;5052590;28;20037;-70
2023/07/21 09:14:42;;;;;;;1.88;1.00;;;25.60;62.50;;;;;;5053016;28;20037;-70
2023/07/21 09:17:09;;;;;;;1.30;0.80;;;25.80;60.00;;;;;;5052288;28;20037;-69
2023/07/21 09:19:43;;;;;;;6.57;1.10;;;25.80;60.50;;;;;;5035073;28;20124;-70
2023/07/21 09:22:10;;;;;;;48.33;9.68;;;25.90;60.70;;;;;;5052708;28;20064;-70
2023/07/21 09:24:37;;;;;;;10.85;2.65;;;26.10;60.70;;;;;;5052488;28;20064;-70
2023/07/21 09:27:13;;;;;;;2.78;0.68;;;25.80;60.00;;;;;;5052208;28;20035;-70
2023/07/21 09:29:40;;;;;;;1.70;0.80;;;25.90;59.50;;;;;;5034677;28;20515;-70
2023/07/21 09:32:22;;;;;;;2.50;0.80;;;25.40;59.80;;;;;;5034586;28;20045;-70
2023/07/21 09:34:59;;;;;;;1.50;0.88;;;25.10;58.60;;;;;;5052520;28;20041;-69
2023/07/21 09:37:29;;;;;;;1.17;0.70;;;24.90;61.40;;;;;;5051996;28;20128;-69
2023/07/21 09:39:57;;;;;;;2.28;0.95;;;24.60;63.80;;;;;;5052487;28;20043;-69
2023/07/21 09:42:27;;;;;;;1.63;0.95;;;24.30;67.40;;;;;;5052385;28;20037;-70
2023/07/21 09:44:54;;;;;;;1.50;0.85;;;24.10;67.30;;;;;;5052221;28;20044;-70
2023/07/21 09:47:20;;;;;;;3.22;0.93;;;24.20;68.70;;;;;;5051455;28;20451;-69
2023/07/21 09:49:48;;;;;;;4.97;1.58;;;23.90;68.80;;;;;;5051506;28;20047;-69
2023/07/21 09:52:16;;;;;;;1.33;0.60;;;23.80;70.10;;;;;;5051996;28;20051;-69
2023/07/21 09:54:44;;;;;;;2.63;0.80;;;23.70;70.20;;;;;;5051822;28;20083;-69
2023/07/21 09:57:13;;;;;;;1.38;0.70;;;23.90;68.70;;;;;;5033763;28;20105;-70
2023/07/21 09:59:42;;;;;;;1.05;0.65;;;23.60;71.00;;;;;;5033822;28;20516;-69
2023/07/21 10:02:08;;;;;;;2.00;1.23;;;23.40;70.20;;;;;;5034201;28;20105;-69
2023/07/21 10:04:35;;;;;;;5.03;0.80;;;23.20;73.40;;;;;;5033397;28;20092;-71
2023/07/21 10:07:06;;;;;;;1.63;0.75;;;23.10;75.30;;;;;;5051651;28;20442;-71
2023/07/21 10:09:33;;;;;;;1.60;0.90;;;22.80;76.10;;;;;;5051970;28;20048;-72
2023/07/21 10:12:14;;;;;;;3.03;1.00;;;22.90;78.20;;;;;;5051399;28;20037;-71
2023/07/21 10:14:40;;;;;;;2.38;1.33;;;23.10;77.60;;;;;;5033356;28;20527;-71
2023/07/21 10:17:09;;;;;;;0.90;0.63;;;23.00;73.70;;;;;;5033044;28;20166;-71
2023/07/21 10:19:42;;;;;;;3.15;0.93;;;23.00;70.20;;;;;;5051498;28;20119;-71
2023/07/21 10:22:12;;;;;;;;;;;23.20;72.00;;;;;;5052303;28;20033;-71
2023/07/21 10:24:47;;;;;;;4.20;0.90;;;23.30;69.10;;;;;;5051197;28;20055;-72
2023/07/21 10:27:21;;;;;;;1.33;0.70;;;23.20;68.90;;;;;;5032573;28;20041;-71
2023/07/21 10:29:53;;;;;;;3.35;0.90;;;23.20;72.40;;;;;;5048370;28;20041;-71
2023/07/21 10:32:22;;;;;;;2.47;0.80;;;22.90;76.70;;;;;;5030477;28;20107;-71
2023/07/21 10:34:51;;;;;;;1.40;0.90;;;23.00;73.80;;;;;;5033473;28;20496;-71
2023/07/21 10:37:16;;;;;;;2.47;1.25;;;23.00;76.20;;;;;;5051018;28;20053;-72
2023/07/21 10:39:53;;;;;;;2.88;1.00;;;23.00;75.80;;;;;;5051375;28;20098;-72
2023/07/21 10:42:18;;;;;;;1.45;0.93;;;23.00;73.80;;;;;;5051727;28;20112;-72
2023/07/21 10:44:46;;;;;;;1.33;0.73;;;22.90;74.40;;;;;;5051542;28;20108;-71
2023/07/21 10:47:12;;;;;;;1.95;0.80;;;22.60;71.60;;;;;;5033407;28;20057;-72
2023/07/21 10:49:38;;;;;;;1.35;0.75;;;22.40;71.70;;;;;;5051440;28;20136;-72
2023/07/21 10:52:04;;;;;;;1.15;0.70;;;22.10;74.20;;;;;;5051340;28;20536;-71
2023/07/21 10:54:30;;;;;;;2.80;1.08;;;21.90;75.00;;;;;;5033421;28;20090;-71
2023/07/21 10:56:57;;;;;;;1.35;0.95;;;21.50;83.30;;;;;;5033063;28;20124;-72
2023/07/21 10:59:24;;;;;;;1.30;0.85;;;21.40;89.50;;;;;;5051256;28;20547;-71
2023/07/21 11:01:51;;;;;;;2.08;1.00;;;21.20;91.00;;;;;;5051171;28;20033;-71
2023/07/21 11:04:18;;;;;;;1.67;1.08;;;21.30;90.50;;;;;;5051171;28;20040;-71
2023/07/21 11:06:46;;;;;;;1.65;1.10;;;21.40;91.50;;;;;;5032654;28;20056;-71
2023/07/21 11:09:13;;;;;;;2.47;1.13;;;21.40;90.90;;;;;;5051311;28;20044;-71
2023/07/21 11:11:44;;;;;;;3.35;0.90;;;21.40;88.40;;;;;;5051315;28;20056;-71
2023/07/21 11:14:14;;;;;;;1.55;0.98;;;21.40;85.80;;;;;;5033149;28;20495;-71
2023/07/21 11:16:49;;;;;;;3.25;1.30;;;21.50;87.10;;;;;;5050750;28;20428;-71
2023/07/21 11:19:16;;;;;;;2.95;1.38;;;21.30;84.40;;;;;;5033112;28;20048;-72
2023/07/21 11:21:41;;;;;;;2.13;1.15;;;21.40;87.00;;;;;;5033212;28;20094;-71
2023/07/21 11:24:08;;;;;;;1.55;0.90;;;21.40;87.00;;;;;;5051187;28;20029;-72
2023/07/21 11:26:36;;;;;;;1.63;0.98;;;21.50;86.70;;;;;;5032575;28;20041;-71
2023/07/21 11:29:08;;;;;;;1.63;1.10;;;21.50;86.70;;;;;;5050609;28;20092;-71
2023/07/21 11:31:36;;;;;;;2.60;1.27;;;21.60;85.40;;;;;;5052685;28;20041;-71
2023/07/21 11:34:02;;;;;;;2.63;1.20;;;21.60;85.90;;;;;;5036820;28;20687;-71
2023/07/21 11:36:30;;;;;;;2.85;1.35;;;21.50;87.10;;;;;;5054253;28;20041;-72
2023/07/21 11:38:57;;;;;;;3.38;1.15;;;21.50;87.50;;;;;;5054472;28;20056;-71
2023/07/21 11:41:56;;;;;;;2.92;1.38;;;21.60;88.50;;;;;;5036645;28;20083;-72
2023/07/21 11:44:31;;;;;;;1.92;1.00;;;21.80;90.10;;;;;;5054205;28;20062;-71
2023/07/21 11:47:10;;;;;;;2.08;1.08;;;22.00;89.20;;;;;;5054085;28;20040;-71
2023/07/21 11:49:44;;;;;;;1.42;1.02;;;22.20;90.20;;;;;;5054437;28;20497;-71
2023/07/21 11:52:11;;;;;;;2.58;0.80;;;22.40;82.60;;;;;;5054170;28;20560;-71
2023/07/21 11:54:40;;;;;;;2.67;1.30;;;22.50;85.30;;;;;;5036351;28;20116;-71
2023/07/21 11:57:06;;;;;;;1.85;1.13;;;22.40;84.00;;;;;;5053931;28;20037;-71
2023/07/21 11:59:32;;;;;;;2.00;1.20;;;22.40;81.20;;;;;;5054460;28;20087;-71
2023/07/21 12:01:58;;;;;;;1.67;1.20;;;22.50;79.60;;;;;;5054321;28;20061;-71
2023/07/21 12:04:24;;;;;;;1.40;0.90;;;22.30;77.60;;;;;;5053993;28;20417;-71
2023/07/21 12:06:51;;;;;;;2.78;1.17;;;22.40;79.00;;;;;;5053137;28;20110;-72
2023/07/21 12:09:17;;;;;;;1.75;1.10;;;22.50;78.10;;;;;;5053285;28;20564;-71
2023/07/21 12:11:43;;;;;;;2.60;1.58;;;22.60;77.90;;;;;;5035755;28;20125;-71
2023/07/21 12:14:09;;;;;;;2.28;1.30;;;22.80;75.50;;;;;;5035960;28;20041;-71
2023/07/21 12:16:35;;;;;;;1.98;1.10;;;22.80;71.80;;;;;;5035793;28;20500;-72
2023/07/21 12:19:03;;;;;;;2.13;1.00;;;22.80;69.00;;;;;;5035370;28;20044;-71
2023/07/21 12:21:30;;;;;;;2.45;1.00;;;22.90;66.40;;;;;;5053330;28;20092;-71
2023/07/21 12:23:56;;;;;;;1.80;1.08;;;22.90;65.30;;;;;;5035598;28;20078;-71
2023/07/21 12:26:22;;;;;;;2.17;1.02;;;22.80;63.80;;;;;;5034904;28;20707;-72
2023/07/21 12:28:48;;;;;;;2.42;0.90;;;22.90;66.10;;;;;;5053874;28;20068;-71
2023/07/21 12:31:17;;;;;;;2.42;1.10;;;22.80;66.90;;;;;;5036042;28;20459;-69
2023/07/21 12:33:48;;;;;;;2.15;1.30;;;22.60;68.50;;;;;;5052476;28;20040;-70
2023/07/21 12:36:14;;;;;;;2.35;1.10;;;22.50;69.90;;;;;;5052878;28;20526;-69
2023/07/21 12:38:44;;;;;;;1.42;1.10;;;22.40;69.70;;;;;;5053302;28;20052;-69
2023/07/21 12:41:10;;;;;;;3.38;2.03;;;22.20;70.50;;;;;;5052265;28;20476;-69
2023/07/21 12:43:36;;;;;;;3.15;1.75;;;21.50;77.20;;;;;;5053424;28;20041;-69
2023/07/21 12:46:03;;;;;;;6.78;1.83;;;21.30;85.00;;;;;;5053182;28;20058;-69
2023/07/21 12:48:30;;;;;;;2.75;1.80;;;20.90;89.70;;;;;;5052992;28;20037;-69